PROFILE

 METAR AND TAF INFORMATION
ADDS - METARS form results

(1205 UTC 15 May 2021)
http://aviationweather.gov/metar/data/
 
LPPR 151200Z 20013KT 8000 OVC004 16/16 Q1018
LPPR 151130Z 20013KT 4500 -DZ BR OVC004 16/16 Q1018
TAF LPPR 151100Z 1512/1612 20010KT 6000 SCT006 BKN012 TEMPO 1512/1610 3000 -RADZ BR SCT002 BKN004 PROB40 TEMPO 1512/1610 1500 DZ BR BKN002 BECMG 1518/1521 20005KT BECMG 1610/1612 33010KT 9999 SCT015 

 AIRPORT MAP

 RUNWAY INFORMATION
Runway 17 Runway length 11417 ft Runway width 148 ft
Runway elevation 151 ft Runway displaced threshold 984 ft Runway heading 169
Runway 35 Runway length 11417 ft Runway width 148 ft
Runway elevation 226 ft Runway displaced threshold 492 ft Runway heading 349

 AIRPORT FREQUENCIES
Type APP Name APP Frequency 121.1 MHZ
Type ATIS Name ATIS Frequency 124.3 MHZ
Type TWR Name TWR Frequency 118 MHZ

 AIRPORT NEAR NAVIGATION AIDS
Type NDB Name Porto Frequency 367 KHZ
Type NDB Name Porto Frequency 327 KHZ
Type VOR-DME Name Porto Frequency 114100 KHZ